sensor_id;sensor_type;location;lat;lon;timestamp;pressure;altitude;pressure_sealevel;temperature;humidity
57894;BME280;43710;47.460;19.034;2022-09-16T04:09:23;99781.75;;;17.42;93.89
57894;BME280;43710;47.460;19.034;2022-09-16T04:12:25;99781.75;;;17.42;93.89
57894;BME280;43710;47.460;19.034;2022-09-16T04:15:27;99787.31;;;16.96;96.23
57894;BME280;43710;47.460;19.034;2022-09-16T04:18:31;99776.47;;;16.96;95.77
57894;BME280;43710;47.460;19.034;2022-09-16T04:21:33;99778.41;;;16.96;95.23
57894;BME280;43710;47.460;19.034;2022-09-16T04:24:35;99788.66;;;17.02;93.47
57894;BME280;43710;47.460;19.034;2022-09-16T04:27:37;99784.25;;;16.98;91.60
57894;BME280;43710;47.460;19.034;2022-09-16T04:30:40;99793.97;;;16.99;91.85
57894;BME280;43710;47.460;19.034;2022-09-16T04:33:42;99793.25;;;17.02;88.24
57894;BME280;43710;47.460;19.034;2022-09-16T04:36:44;99790.69;;;17.05;86.73
57894;BME280;43710;47.460;19.034;2022-09-16T04:39:46;99781.31;;;17.03;86.30
57894;BME280;43710;47.460;19.034;2022-09-16T04:42:49;99786.28;;;17.13;86.18
57894;BME280;43710;47.460;19.034;2022-09-16T04:45:51;99780.63;;;17.18;87.31
57894;BME280;43710;47.460;19.034;2022-09-16T04:48:55;99787.28;;;17.08;85.52
57894;BME280;43710;47.460;19.034;2022-09-16T04:51:57;99778.03;;;17.22;83.76
57894;BME280;43710;47.460;19.034;2022-09-16T04:54:59;99779.50;;;17.31;85.03
57894;BME280;43710;47.460;19.034;2022-09-16T04:58:01;99777.03;;;17.14;86.45
57894;BME280;43710;47.460;19.034;2022-09-16T05:01:08;99789.44;;;17.15;86.47
57894;BME280;43710;47.460;19.034;2022-09-16T05:04:13;99796.00;;;17.14;89.13
57894;BME280;43710;47.460;19.034;2022-09-16T05:07:16;99788.75;;;17.18;88.30
57894;BME280;43710;47.460;19.034;2022-09-16T05:10:18;99780.53;;;17.14;89.34
57894;BME280;43710;47.460;19.034;2022-09-16T05:13:22;99780.63;;;17.18;86.19
57894;BME280;43710;47.460;19.034;2022-09-16T05:16:24;99788.44;;;17.20;87.97
57894;BME280;43710;47.460;19.034;2022-09-16T05:19:26;99791.34;;;17.14;85.22
57894;BME280;43710;47.460;19.034;2022-09-16T05:22:28;99797.34;;;17.20;83.59
57894;BME280;43710;47.460;19.034;2022-09-16T05:25:32;99794.66;;;17.20;87.26
57894;BME280;43710;47.460;19.034;2022-09-16T05:28:34;99793.63;;;17.25;81.99
57894;BME280;43710;47.460;19.034;2022-09-16T05:31:39;99804.13;;;17.26;83.02
57894;BME280;43710;47.460;19.034;2022-09-16T05:34:42;99805.03;;;17.30;82.24
57894;BME280;43710;47.460;19.034;2022-09-16T05:37:44;99798.16;;;17.33;81.79
57894;BME280;43710;47.460;19.034;2022-09-16T05:40:46;99808.31;;;17.36;84.96
57894;BME280;43710;47.460;19.034;2022-09-16T05:43:49;99806.28;;;17.33;80.96
57894;BME280;43710;47.460;19.034;2022-09-16T05:46:52;99803.56;;;17.33;83.33
57894;BME280;43710;47.460;19.034;2022-09-16T05:49:55;99805.91;;;17.34;85.59
57894;BME280;43710;47.460;19.034;2022-09-16T05:52:57;99804.56;;;17.41;85.79
57894;BME280;43710;47.460;19.034;2022-09-16T05:56:05;99813.25;;;17.34;86.73
57894;BME280;43710;47.460;19.034;2022-09-16T05:59:10;99798.94;;;17.33;85.84
57894;BME280;43710;47.460;19.034;2022-09-16T06:02:14;99794.50;;;17.41;83.79
57894;BME280;43710;47.460;19.034;2022-09-16T06:05:17;99804.09;;;17.51;81.92
57894;BME280;43710;47.460;19.034;2022-09-16T06:08:19;99810.87;;;17.45;81.25
57894;BME280;43710;47.460;19.034;2022-09-16T06:11:23;99820.81;;;17.41;82.69
57894;BME280;43710;47.460;19.034;2022-09-16T06:14:26;99814.25;;;17.42;85.14
57894;BME280;43710;47.460;19.034;2022-09-16T06:17:29;99810.87;;;17.45;83.14
57894;BME280;43710;47.460;19.034;2022-09-16T06:20:31;99822.62;;;17.49;86.46
57894;BME280;43710;47.460;19.034;2022-09-16T06:23:34;99822.41;;;17.54;84.21
57894;BME280;43710;47.460;19.034;2022-09-16T06:26:38;99821.81;;;17.60;84.98
57894;BME280;43710;47.460;19.034;2022-09-16T06:29:42;99814.38;;;17.57;87.37
57894;BME280;43710;47.460;19.034;2022-09-16T06:32:44;99806.59;;;17.56;84.79
57894;BME280;43710;47.460;19.034;2022-09-16T06:35:46;99801.59;;;17.58;86.10
57894;BME280;43710;47.460;19.034;2022-09-16T06:38:49;99799.34;;;17.60;83.75
57894;BME280;43710;47.460;19.034;2022-09-16T06:41:52;99795.50;;;17.61;78.86
57894;BME280;43710;47.460;19.034;2022-09-16T06:44:57;99810.19;;;17.60;84.44
57894;BME280;43710;47.460;19.034;2022-09-16T06:47:59;99811.44;;;17.62;78.19
57894;BME280;43710;47.460;19.034;2022-09-16T06:51:06;99805.44;;;17.69;78.68
57894;BME280;43710;47.460;19.034;2022-09-16T06:54:09;99810.09;;;17.69;80.31
57894;BME280;43710;47.460;19.034;2022-09-16T06:57:11;99811.19;;;17.68;85.38
57894;BME280;43710;47.460;19.034;2022-09-16T07:00:13;99814.72;;;17.68;87.67
57894;BME280;43710;47.460;19.034;2022-09-16T07:03:16;99813.59;;;17.69;87.39
57894;BME280;43710;47.460;19.034;2022-09-16T07:06:19;99808.50;;;17.80;85.38
57894;BME280;43710;47.460;19.034;2022-09-16T07:09:22;99815.25;;;17.74;87.04
57894;BME280;43710;47.460;19.034;2022-09-16T07:12:25;99825.31;;;17.73;87.28
57894;BME280;43710;47.460;19.034;2022-09-16T07:15:28;99821.72;;;17.81;87.13
57894;BME280;43710;47.460;19.034;2022-09-16T07:18:31;99823.63;;;17.81;86.87
57894;BME280;43710;47.460;19.034;2022-09-16T07:21:33;99822.25;;;17.87;87.94
57894;BME280;43710;47.460;19.034;2022-09-16T07:24:36;99826.91;;;17.87;87.50
57894;BME280;43710;47.460;19.034;2022-09-16T07:27:38;99831.28;;;17.91;87.14
57894;BME280;43710;47.460;19.034;2022-09-16T07:30:41;99830.41;;;17.87;87.82
57894;BME280;43710;47.460;19.034;2022-09-16T07:33:46;99838.88;;;17.86;87.07
57894;BME280;43710;47.460;19.034;2022-09-16T07:36:49;99837.94;;;17.94;86.42
57894;BME280;43710;47.460;19.034;2022-09-16T07:39:51;99847.44;;;17.88;87.63
57894;BME280;43710;47.460;19.034;2022-09-16T07:42:53;99837.41;;;17.88;85.08
57894;BME280;43710;47.460;19.034;2022-09-16T07:45:56;99849.47;;;17.91;85.30
57894;BME280;43710;47.460;19.034;2022-09-16T07:49:00;99848.47;;;17.95;84.36
57894;BME280;43710;47.460;19.034;2022-09-16T07:52:03;99847.31;;;17.96;83.07
57894;BME280;43710;47.460;19.034;2022-09-16T07:55:05;99846.88;;;17.94;85.18
57894;BME280;43710;47.460;19.034;2022-09-16T07:58:07;99851.88;;;17.92;83.68
57894;BME280;43710;47.460;19.034;2022-09-16T08:01:10;99849.69;;;17.98;84.86
57894;BME280;43710;47.460;19.034;2022-09-16T08:04:13;99852.84;;;18.00;84.64
57894;BME280;43710;47.460;19.034;2022-09-16T08:07:15;99851.28;;;17.99;82.00
57894;BME280;43710;47.460;19.034;2022-09-16T08:10:18;99858.28;;;18.00;82.49
57894;BME280;43710;47.460;19.034;2022-09-16T08:13:20;99861.09;;;18.03;81.04
57894;BME280;43710;47.460;19.034;2022-09-16T08:16:22;99866.19;;;18.05;79.17
57894;BME280;43710;47.460;19.034;2022-09-16T08:19:26;99860.88;;;18.08;75.74
57894;BME280;43710;47.460;19.034;2022-09-16T08:22:28;99861.66;;;18.09;78.49
57894;BME280;43710;47.460;19.034;2022-09-16T08:25:30;99859.16;;;18.04;73.60
57894;BME280;43710;47.460;19.034;2022-09-16T08:28:33;99860.31;;;18.03;76.60
57894;BME280;43710;47.460;19.034;2022-09-16T08:31:52;99862.91;;;18.12;73.75
57894;BME280;43710;47.460;19.034;2022-09-16T08:34:54;99862.66;;;18.04;76.79
57894;BME280;43710;47.460;19.034;2022-09-16T08:37:57;99864.69;;;18.07;79.62
57894;BME280;43710;47.460;19.034;2022-09-16T08:50:50;99865.38;;;18.04;74.00
57894;BME280;43710;47.460;19.034;2022-09-16T08:53:56;99867.50;;;18.11;75.58
57894;BME280;43710;47.460;19.034;2022-09-16T08:57:02;99867.19;;;18.13;75.25
57894;BME280;43710;47.460;19.034;2022-09-16T09:00:12;99859.28;;;18.07;72.69
57894;BME280;43710;47.460;19.034;2022-09-16T09:06:45;99880.50;;;18.18;74.72
57894;BME280;43710;47.460;19.034;2022-09-16T09:10:04;99884.13;;;18.10;74.92
57894;BME280;43710;47.460;19.034;2022-09-16T09:26:48;99853.16;;;18.11;78.51
57894;BME280;43710;47.460;19.034;2022-09-16T09:30:09;99860.53;;;17.98;77.13
57894;BME280;43710;47.460;19.034;2022-09-16T09:33:28;99853.91;;;17.95;77.53
57894;BME280;43710;47.460;19.034;2022-09-16T09:37:10;99859.62;;;18.06;78.76
57894;BME280;43710;47.460;19.034;2022-09-16T09:40:46;99862.03;;;17.95;75.80
57894;BME280;43710;47.460;19.034;2022-09-16T09:47:42;99869.38;;;17.95;77.40
57894;BME280;43710;47.460;19.034;2022-09-16T09:50:49;99872.66;;;17.88;75.65
57894;BME280;43710;47.460;19.034;2022-09-16T09:54:24;99875.81;;;17.90;77.04
57894;BME280;43710;47.460;19.034;2022-09-16T10:00:36;99856.66;;;18.11;77.28
57894;BME280;43710;47.460;19.034;2022-09-16T10:03:39;99864.66;;;18.20;79.12
57894;BME280;43710;47.460;19.034;2022-09-16T10:06:41;99844.97;;;18.35;75.98
57894;BME280;43710;47.460;19.034;2022-09-16T10:12:52;99849.72;;;18.54;76.70
57894;BME280;43710;47.460;19.034;2022-09-16T10:16:08;99848.25;;;18.57;78.23
57894;BME280;43710;47.460;19.034;2022-09-16T10:22:24;99852.38;;;18.66;73.78
57894;BME280;43710;47.460;19.034;2022-09-16T10:25:29;99847.41;;;18.68;74.57
57894;BME280;43710;47.460;19.034;2022-09-16T10:28:32;99846.28;;;18.69;72.85
57894;BME280;43710;47.460;19.034;2022-09-16T10:31:36;99847.63;;;18.75;69.11
57894;BME280;43710;47.460;19.034;2022-09-16T10:34:40;99841.28;;;18.71;72.68
57894;BME280;43710;47.460;19.034;2022-09-16T10:37:49;99842.31;;;18.67;70.57
57894;BME280;43710;47.460;19.034;2022-09-16T10:41:08;99838.47;;;18.68;71.53
57894;BME280;43710;47.460;19.034;2022-09-16T10:44:27;99835.53;;;18.73;72.02
57894;BME280;43710;47.460;19.034;2022-09-16T10:47:32;99846.28;;;18.69;67.14
57894;BME280;43710;47.460;19.034;2022-09-16T10:50:34;99836.47;;;18.65;68.99
57894;BME280;43710;47.460;19.034;2022-09-16T10:53:44;99844.94;;;18.63;68.67
57894;BME280;43710;47.460;19.034;2022-09-16T10:56:49;99850.03;;;18.65;70.43
57894;BME280;43710;47.460;19.034;2022-09-16T11:07:07;99857.72;;;18.63;66.91
57894;BME280;43710;47.460;19.034;2022-09-16T11:13:31;99858.00;;;18.58;67.18
57894;BME280;43710;47.460;19.034;2022-09-16T11:26:56;99853.34;;;18.86;69.06
57894;BME280;43710;47.460;19.034;2022-09-16T11:30:13;99854.28;;;18.94;63.85
57894;BME280;43710;47.460;19.034;2022-09-16T11:33:31;99840.72;;;18.94;63.37
57894;BME280;43710;47.460;19.034;2022-09-16T11:37:14;99831.69;;;18.90;62.29
57894;BME280;43710;47.460;19.034;2022-09-16T11:44:17;99821.53;;;19.02;64.99
57894;BME280;43710;47.460;19.034;2022-09-16T11:47:30;99830.12;;;19.05;59.40
57894;BME280;43710;47.460;19.034;2022-09-16T11:50:57;99832.66;;;19.13;59.36
57894;BME280;43710;47.460;19.034;2022-09-16T11:57:31;99812.94;;;19.16;57.56
57894;BME280;43710;47.460;19.034;2022-09-16T12:00:37;99812.94;;;19.16;59.46
57894;BME280;43710;47.460;19.034;2022-09-16T12:04:05;99805.78;;;19.24;60.19
57894;BME280;43710;47.460;19.034;2022-09-16T12:07:20;99814.44;;;19.30;59.37
57894;BME280;43710;47.460;19.034;2022-09-16T12:10:32;99810.66;;;19.34;60.66
57894;BME280;43710;47.460;19.034;2022-09-16T12:13:40;99803.47;;;19.42;61.04
57894;BME280;43710;47.460;19.034;2022-09-16T12:16:58;99791.44;;;19.43;61.70
57894;BME280;43710;47.460;19.034;2022-09-16T12:20:18;99802.94;;;19.36;61.74
57894;BME280;43710;47.460;19.034;2022-09-16T12:23:23;99806.34;;;19.33;62.42
57894;BME280;43710;47.460;19.034;2022-09-16T12:26:33;99798.56;;;19.32;60.89
57894;BME280;43710;47.460;19.034;2022-09-16T12:29:52;99790.66;;;19.42;64.03
57894;BME280;43710;47.460;19.034;2022-09-16T12:33:04;99795.31;;;19.42;63.13
57894;BME280;43710;47.460;19.034;2022-09-16T12:36:11;99791.28;;;19.36;62.17
57894;BME280;43710;47.460;19.034;2022-09-16T12:39:21;99800.41;;;19.28;61.58
57894;BME280;43710;47.460;19.034;2022-09-16T12:45:46;99785.53;;;19.21;60.54
57894;BME280;43710;47.460;19.034;2022-09-16T12:52:21;99775.44;;;19.22;64.03
57894;BME280;43710;47.460;19.034;2022-09-16T12:55:51;99772.53;;;19.31;66.43
57894;BME280;43710;47.460;19.034;2022-09-16T12:59:12;99768.59;;;19.28;65.80
57894;BME280;43710;47.460;19.034;2022-09-16T13:02:20;99770.69;;;19.35;67.27
57894;BME280;43710;47.460;19.034;2022-09-16T13:05:30;99762.94;;;19.37;66.65
57894;BME280;43710;47.460;19.034;2022-09-16T13:08:35;99760.84;;;19.46;66.85
57894;BME280;43710;47.460;19.034;2022-09-16T13:11:38;99760.56;;;19.67;66.08
57894;BME280;43710;47.460;19.034;2022-09-16T13:15:03;99749.37;;;19.72;64.76
57894;BME280;43710;47.460;19.034;2022-09-16T13:18:37;99751.91;;;19.81;63.69
57894;BME280;43710;47.460;19.034;2022-09-16T13:21:42;99753.03;;;19.80;66.03
57894;BME280;43710;47.460;19.034;2022-09-16T13:25:21;99760.34;;;19.76;67.52
57894;BME280;43710;47.460;19.034;2022-09-16T13:31:46;99761.91;;;19.77;65.00
57894;BME280;43710;47.460;19.034;2022-09-16T13:35:03;99754.97;;;19.79;64.79
57894;BME280;43710;47.460;19.034;2022-09-16T13:38:22;99751.31;;;19.91;64.26
57894;BME280;43710;47.460;19.034;2022-09-16T13:41:37;99744.38;;;19.74;63.82
57894;BME280;43710;47.460;19.034;2022-09-16T13:44:40;99743.81;;;19.84;63.90
57894;BME280;43710;47.460;19.034;2022-09-16T13:47:48;99748.31;;;19.77;62.07
57894;BME280;43710;47.460;19.034;2022-09-16T13:50:58;99742.44;;;19.75;62.65
57894;BME280;43710;47.460;19.034;2022-09-16T13:54:03;99733.84;;;19.73;63.69
57894;BME280;43710;47.460;19.034;2022-09-16T13:57:19;99724.06;;;19.68;66.33
57894;BME280;43710;47.460;19.034;2022-09-16T14:00:25;99726.16;;;19.59;65.67
57894;BME280;43710;47.460;19.034;2022-09-16T14:06:46;99709.06;;;19.58;66.01
57894;BME280;43710;47.460;19.034;2022-09-16T14:10:05;99717.22;;;19.58;66.52
57894;BME280;43710;47.460;19.034;2022-09-16T14:13:13;99711.34;;;19.56;64.52
57894;BME280;43710;47.460;19.034;2022-09-16T14:16:19;99719.56;;;19.60;64.13
57894;BME280;43710;47.460;19.034;2022-09-16T14:19:26;99713.97;;;19.53;65.27
57894;BME280;43710;47.460;19.034;2022-09-16T14:22:29;99711.56;;;19.47;66.32
57894;BME280;43710;47.460;19.034;2022-09-16T14:25:34;99710.03;;;19.50;68.85
57894;BME280;43710;47.460;19.034;2022-09-16T14:28:38;99708.41;;;19.45;67.04
57894;BME280;43710;47.460;19.034;2022-09-16T14:31:40;99707.75;;;19.52;67.50
57894;BME280;43710;47.460;19.034;2022-09-16T14:34:47;99713.50;;;19.47;68.17
57894;BME280;43710;47.460;19.034;2022-09-16T14:38:00;99702.69;;;19.51;68.21
57894;BME280;43710;47.460;19.034;2022-09-16T14:41:06;99710.56;;;19.56;67.82
57894;BME280;43710;47.460;19.034;2022-09-16T14:50:46;99704.03;;;19.41;69.06
57894;BME280;43710;47.460;19.034;2022-09-16T14:53:56;99696.16;;;19.36;70.13
57894;BME280;43710;47.460;19.034;2022-09-16T14:57:25;99685.66;;;19.34;70.50
57894;BME280;43710;47.460;19.034;2022-09-16T15:00:59;99683.81;;;19.58;68.21
57894;BME280;43710;47.460;19.034;2022-09-16T15:04:08;99691.31;;;19.45;70.11
57894;BME280;43710;47.460;19.034;2022-09-16T15:07:20;99691.81;;;19.31;69.85
57894;BME280;43710;47.460;19.034;2022-09-16T15:10:26;99684.88;;;19.34;69.67
57894;BME280;43710;47.460;19.034;2022-09-16T15:13:42;99688.31;;;19.31;70.84
57894;BME280;43710;47.460;19.034;2022-09-16T15:16:52;99695.00;;;19.17;70.51
57894;BME280;43710;47.460;19.034;2022-09-16T15:19:57;99691.13;;;19.18;70.82
57894;BME280;43710;47.460;19.034;2022-09-16T15:23:00;99689.47;;;19.14;72.20
57894;BME280;43710;47.460;19.034;2022-09-16T15:26:16;99700.25;;;19.10;73.08
57894;BME280;43710;47.460;19.034;2022-09-16T15:32:22;99705.53;;;19.03;74.20
